createdAt,value
2022-12-31T00:00:58.287Z,100538.06
2022-12-31T00:03:00.834Z,100472.75
2022-12-31T00:05:03.612Z,100441.16
2022-12-31T00:07:05.889Z,100444.28
2022-12-31T00:09:14.963Z,100457.38
2022-12-31T00:11:20.565Z,100519.03
2022-12-31T00:13:25.892Z,100522.91
2022-12-31T00:15:32.250Z,100463.03
2022-12-31T00:17:34.351Z,100555.81
2022-12-31T00:19:36.323Z,100576.91
2022-12-31T00:21:41.621Z,100555.72
2022-12-31T00:23:43.600Z,100529.09
2022-12-31T00:25:45.459Z,100633.75
2022-12-31T00:27:47.426Z,100588.03
2022-12-31T00:29:49.377Z,100505.31
2022-12-31T00:31:51.068Z,100560.53
2022-12-31T00:33:53.224Z,100649.25
2022-12-31T00:35:54.903Z,100612.19
2022-12-31T00:37:56.601Z,100629.63
2022-12-31T00:39:58.373Z,100602.88
2022-12-31T00:42:00.136Z,100617.97
2022-12-31T00:44:02.229Z,100622.06
2022-12-31T00:46:04.991Z,100618.69
2022-12-31T00:48:06.687Z,100621.59
2022-12-31T00:50:08.778Z,100637.06
2022-12-31T00:52:10.438Z,100626.84
2022-12-31T00:54:12.366Z,100629.06
2022-12-31T00:56:19.839Z,100626.34
2022-12-31T00:58:21.493Z,100599.91
2022-12-31T01:00:23.193Z,100636.78
2022-12-31T01:02:25.038Z,100624.22
2022-12-31T01:04:26.922Z,100630.50
2022-12-31T01:06:28.624Z,100609.06
2022-12-31T01:08:30.334Z,100616.44
2022-12-31T01:10:32.143Z,100594.91
2022-12-31T01:12:33.818Z,100418.72
2022-12-31T01:14:35.659Z,100590.19
2022-12-31T01:16:49.172Z,100603.72
2022-12-31T01:18:51.035Z,100589.16
2022-12-31T01:20:52.790Z,100611.53
2022-12-31T01:22:54.486Z,100577.53
2022-12-31T01:24:56.183Z,100604.13
2022-12-31T01:26:58.068Z,100599.53
2022-12-31T01:28:59.849Z,100573.66
2022-12-31T01:31:09.819Z,100599.97
2022-12-31T01:33:11.530Z,100596.78
2022-12-31T01:35:13.213Z,100591.22
2022-12-31T01:37:14.888Z,100565.34
2022-12-31T01:39:18.022Z,100570.16
2022-12-31T01:41:41.237Z,100579.16
2022-12-31T01:44:01.047Z,100570.00
2022-12-31T01:46:02.844Z,100578.47
2022-12-31T01:48:04.829Z,100581.09
2022-12-31T01:50:12.060Z,100566.28
2022-12-31T01:52:22.749Z,100559.66
2022-12-31T01:54:27.279Z,100558.38
2022-12-31T01:56:29.247Z,100542.84
2022-12-31T01:58:49.663Z,100541.31
2022-12-31T02:00:53.214Z,100530.31
2022-12-31T02:02:55.308Z,100533.09
2022-12-31T02:05:00.351Z,100540.84
2022-12-31T02:07:05.392Z,100521.63
2022-12-31T02:09:08.039Z,100549.25
2022-12-31T02:11:30.478Z,100560.47
2022-12-31T02:13:32.209Z,100543.22
2022-12-31T02:16:18.406Z,100557.25
2022-12-31T02:18:46.971Z,100557.13
2022-12-31T02:21:14.346Z,100552.78
2022-12-31T02:23:19.155Z,100538.34
2022-12-31T02:25:20.966Z,100533.25
2022-12-31T02:27:42.496Z,100538.84
2022-12-31T02:30:24.312Z,100537.56
2022-12-31T02:32:51.412Z,100547.13
2022-12-31T02:35:02.793Z,100544.25
2022-12-31T02:37:10.665Z,100546.66
2022-12-31T02:39:14.637Z,100553.56
2022-12-31T02:41:18.684Z,100551.84
2022-12-31T02:43:20.418Z,100535.59
2022-12-31T02:45:29.723Z,100550.19
2022-12-31T02:47:46.618Z,100558.66
2022-12-31T02:50:33.227Z,100553.19
2022-12-31T02:53:11.583Z,100546.97
2022-12-31T02:55:25.995Z,100552.84
2022-12-31T02:57:36.655Z,100554.19
2022-12-31T02:59:44.525Z,100552.75
2022-12-31T03:01:51.780Z,100565.56
2022-12-31T03:03:53.652Z,100560.41
2022-12-31T03:05:57.261Z,100534.13
2022-12-31T03:07:58.868Z,100551.78
2022-12-31T03:10:01.304Z,100558.63
2022-12-31T03:12:05.299Z,100556.34
2022-12-31T03:14:07.043Z,100546.66
2022-12-31T03:16:08.820Z,100551.41
2022-12-31T03:18:13.446Z,100549.50
2022-12-31T03:20:15.217Z,100549.50
2022-12-31T03:22:17.017Z,100518.66
2022-12-31T03:24:18.754Z,100554.41
2022-12-31T03:26:20.409Z,100538.50
2022-12-31T03:28:25.556Z,100548.56
2022-12-31T03:30:28.102Z,100536.38
2022-12-31T03:32:29.793Z,100523.66
2022-12-31T03:34:31.454Z,100543.91
2022-12-31T03:36:33.174Z,100523.53
2022-12-31T03:38:34.863Z,100522.97
2022-12-31T03:40:45.791Z,100539.25
2022-12-31T03:42:47.584Z,100532.19
2022-12-31T03:44:49.265Z,100531.69
2022-12-31T03:46:50.985Z,100534.09
2022-12-31T03:48:52.671Z,100511.84
2022-12-31T03:50:54.571Z,100537.78
2022-12-31T03:52:56.549Z,100529.03
2022-12-31T03:54:58.451Z,100538.56
2022-12-31T03:57:00.533Z,100543.00
2022-12-31T03:59:02.374Z,100542.03
2022-12-31T04:01:04.112Z,100532.59
2022-12-31T04:03:05.940Z,100545.72
2022-12-31T04:05:08.120Z,100550.16
2022-12-31T04:07:09.849Z,100552.66
2022-12-31T04:09:11.503Z,100534.00
2022-12-31T04:11:18.927Z,100530.22
2022-12-31T04:13:22.504Z,100541.69
2022-12-31T04:15:24.208Z,100543.34
2022-12-31T04:17:26.563Z,100546.69
2022-12-31T04:19:28.266Z,100546.19
2022-12-31T04:21:34.846Z,100533.91
2022-12-31T04:23:36.964Z,100564.25
2022-12-31T04:25:38.650Z,100552.03
2022-12-31T04:27:41.576Z,100553.19
2022-12-31T04:29:43.300Z,100567.75
2022-12-31T04:31:45.144Z,100552.00
2022-12-31T04:33:46.872Z,100549.22
2022-12-31T04:35:48.642Z,100557.34
2022-12-31T04:37:50.417Z,100533.78
2022-12-31T04:39:52.174Z,100547.63
2022-12-31T04:41:53.845Z,100557.25
2022-12-31T04:43:57.988Z,100568.31
2022-12-31T04:45:59.741Z,100551.16
2022-12-31T04:48:02.081Z,100547.06
2022-12-31T04:50:04.421Z,100564.63
2022-12-31T04:52:06.098Z,100549.19
2022-12-31T04:54:07.817Z,100536.13
2022-12-31T04:56:10.339Z,100539.19
2022-12-31T04:58:12.033Z,100558.97
2022-12-31T05:00:14.045Z,100564.09
2022-12-31T05:02:15.837Z,100543.56
2022-12-31T05:04:17.585Z,100537.59
2022-12-31T05:06:21.681Z,100553.06
2022-12-31T05:08:23.363Z,100546.69
2022-12-31T05:10:25.040Z,100544.41
2022-12-31T05:12:26.757Z,100542.19
2022-12-31T05:14:28.508Z,100547.38
2022-12-31T05:16:30.241Z,100539.63
2022-12-31T05:18:32.921Z,100551.59
2022-12-31T05:20:35.113Z,100538.66
2022-12-31T05:22:36.778Z,100536.75
2022-12-31T05:24:38.434Z,100532.53
2022-12-31T05:26:40.143Z,100536.22
2022-12-31T05:28:41.967Z,100528.44
2022-12-31T05:30:43.904Z,100534.00
2022-12-31T05:32:46.633Z,100546.19
2022-12-31T05:34:48.292Z,100543.09
2022-12-31T05:36:50.072Z,100505.56
2022-12-31T05:38:51.817Z,100548.19
2022-12-31T05:41:03.290Z,100550.25
2022-12-31T05:43:05.018Z,100542.53
2022-12-31T05:45:07.254Z,100553.34
2022-12-31T05:47:08.919Z,100551.34
2022-12-31T05:49:10.855Z,100539.88
2022-12-31T05:51:12.565Z,100526.81
2022-12-31T05:53:14.232Z,100536.13
2022-12-31T05:55:16.031Z,100533.66
2022-12-31T05:57:17.727Z,100545.47
2022-12-31T05:59:19.447Z,100531.41
2022-12-31T06:01:21.163Z,100541.69
2022-12-31T06:03:22.903Z,100542.72
2022-12-31T06:05:26.414Z,100568.78
2022-12-31T06:07:28.729Z,100565.16
2022-12-31T06:09:30.440Z,100539.78
2022-12-31T06:11:32.110Z,100540.28
2022-12-31T06:13:33.825Z,100554.97
2022-12-31T06:15:39.927Z,100567.28
2022-12-31T06:17:41.641Z,100566.84
2022-12-31T06:19:43.350Z,100571.16
2022-12-31T06:21:45.015Z,100572.19
2022-12-31T06:23:47.474Z,100570.63
2022-12-31T06:25:50.132Z,100577.31
2022-12-31T06:27:51.804Z,100575.31
2022-12-31T06:29:53.529Z,100571.25
2022-12-31T06:31:55.271Z,100549.28
2022-12-31T06:33:57.029Z,100566.13
2022-12-31T06:36:01.389Z,100571.28
2022-12-31T06:38:03.195Z,100574.53
2022-12-31T06:40:05.452Z,100582.19
2022-12-31T06:42:07.144Z,100580.81
2022-12-31T06:44:08.844Z,100573.28
2022-12-31T06:46:14.386Z,100571.09
2022-12-31T06:48:16.099Z,100576.41
2022-12-31T06:50:17.827Z,100584.03
2022-12-31T06:52:19.661Z,100589.38
2022-12-31T06:54:21.459Z,100587.84
2022-12-31T06:56:33.029Z,100579.91
2022-12-31T06:58:36.140Z,100588.28
2022-12-31T07:00:38.029Z,100599.50
2022-12-31T07:03:07.092Z,100596.81
2022-12-31T07:05:37.435Z,100600.47
2022-12-31T07:07:44.826Z,100597.03
2022-12-31T07:09:56.167Z,100591.25
2022-12-31T07:12:17.960Z,100598.66
2022-12-31T07:14:25.547Z,100591.78
2022-12-31T07:16:44.334Z,100586.78
2022-12-31T07:19:12.925Z,100595.72
2022-12-31T07:21:30.267Z,100589.59
2022-12-31T07:23:32.221Z,100582.81
2022-12-31T07:25:37.722Z,100571.03
2022-12-31T07:27:59.571Z,100555.47
2022-12-31T07:30:14.814Z,100594.19
2022-12-31T07:32:42.735Z,100601.97
2022-12-31T07:35:11.483Z,100603.91
2022-12-31T07:37:27.228Z,100602.69
2022-12-31T07:39:41.913Z,100603.66
2022-12-31T07:42:00.016Z,100604.63
2022-12-31T07:44:24.091Z,100602.97
2022-12-31T07:46:44.045Z,100602.25
2022-12-31T07:48:46.006Z,100606.41
2022-12-31T07:50:48.001Z,100604.75
2022-12-31T07:52:49.945Z,100601.41
2022-12-31T07:54:51.671Z,100607.00
2022-12-31T07:56:53.401Z,100610.41
2022-12-31T07:59:15.739Z,100608.66
2022-12-31T08:01:33.398Z,100600.81
2022-12-31T08:03:57.071Z,100618.47
2022-12-31T08:06:12.197Z,100620.97
2022-12-31T08:08:32.202Z,100621.69
2022-12-31T08:11:11.363Z,100620.56
2022-12-31T08:13:13.441Z,100608.88
2022-12-31T08:15:17.578Z,100607.91
2022-12-31T08:17:20.048Z,100617.66
2022-12-31T08:19:31.064Z,100619.63
2022-12-31T08:21:35.430Z,100616.28
2022-12-31T08:23:54.508Z,100600.66
2022-12-31T08:26:23.607Z,100608.88
2022-12-31T08:28:49.779Z,100607.66
2022-12-31T08:30:54.229Z,100599.56
2022-12-31T08:33:38.375Z,100612.81
2022-12-31T08:36:01.710Z,100606.81
2022-12-31T08:38:32.584Z,100596.22
2022-12-31T08:41:01.473Z,100598.44
2022-12-31T08:43:27.433Z,100598.44
2022-12-31T08:45:41.883Z,100590.38
2022-12-31T08:48:15.635Z,100602.78
2022-12-31T08:50:19.072Z,100598.88
2022-12-31T08:52:24.815Z,100586.50
2022-12-31T08:54:27.020Z,100595.00
2022-12-31T08:56:50.443Z,100621.44
2022-12-31T08:59:11.141Z,100612.94
2022-12-31T09:01:16.776Z,100621.44
2022-12-31T09:03:30.280Z,100625.31
2022-12-31T09:05:46.850Z,100612.34
2022-12-31T09:08:17.569Z,100609.44
2022-12-31T09:10:35.033Z,100622.41
2022-12-31T09:13:05.305Z,100622.66
2022-12-31T09:15:26.557Z,100622.53
2022-12-31T09:17:47.461Z,100622.13
2022-12-31T09:19:49.448Z,100627.97
2022-12-31T09:21:51.465Z,100626.00
2022-12-31T09:23:53.525Z,100622.78
2022-12-31T09:26:33.290Z,100628.38
2022-12-31T09:29:46.044Z,100621.56
2022-12-31T09:31:54.602Z,100607.75
2022-12-31T09:33:56.251Z,100590.06
2022-12-31T09:36:02.612Z,100577.41
2022-12-31T09:38:16.184Z,100596.03
2022-12-31T09:40:36.374Z,100594.47
2022-12-31T09:43:05.658Z,100588.22
2022-12-31T09:45:34.024Z,100571.13
2022-12-31T09:47:38.563Z,100562.13
2022-12-31T09:50:17.744Z,100563.09
2022-12-31T09:52:51.917Z,100566.56
2022-12-31T09:55:12.470Z,100563.97
2022-12-31T09:57:23.490Z,100564.31
2022-12-31T09:59:48.347Z,100561.72
2022-12-31T10:02:11.932Z,100559.59
2022-12-31T10:04:28.844Z,100549.94
2022-12-31T10:07:06.596Z,100555.03
2022-12-31T10:09:36.409Z,100539.41
2022-12-31T10:11:38.055Z,100534.81
2022-12-31T10:13:48.677Z,100557.13
2022-12-31T10:16:08.543Z,100549.09
2022-12-31T10:18:38.151Z,100547.00
2022-12-31T10:20:58.069Z,100538.06
2022-12-31T10:23:07.646Z,100513.84
2022-12-31T10:25:42.951Z,100501.81
2022-12-31T10:28:32.397Z,100509.25
2022-12-31T10:30:39.538Z,100524.59
2022-12-31T10:32:43.231Z,100529.34
2022-12-31T10:35:03.571Z,100517.75
2022-12-31T10:37:18.283Z,100519.88
2022-12-31T10:39:34.574Z,100519.78
2022-12-31T10:42:05.686Z,100507.53
2022-12-31T10:44:28.428Z,100499.78
2022-12-31T10:47:16.570Z,100510.94
2022-12-31T10:49:38.745Z,100483.22
2022-12-31T10:52:15.117Z,100491.53
2022-12-31T10:54:40.445Z,100516.09
2022-12-31T10:56:51.237Z,100513.19
2022-12-31T10:59:13.859Z,100515.41
2022-12-31T11:01:30.827Z,100487.69
2022-12-31T11:03:44.826Z,100490.63
2022-12-31T11:06:07.331Z,100483.00
2022-12-31T11:08:46.240Z,100471.56
2022-12-31T11:11:02.345Z,100453.19
2022-12-31T11:13:09.854Z,100454.34
2022-12-31T11:15:50.231Z,100458.44
2022-12-31T11:18:13.390Z,100462.84
2022-12-31T11:20:39.283Z,100448.59
2022-12-31T11:22:41.044Z,100441.28
2022-12-31T11:25:01.280Z,100448.66
2022-12-31T11:27:11.824Z,100448.28
2022-12-31T11:29:54.613Z,100449.00
2022-12-31T11:32:14.243Z,100442.34
2022-12-31T11:34:37.941Z,100448.03
2022-12-31T11:36:57.730Z,100447.75
2022-12-31T11:39:33.064Z,100451.16
2022-12-31T11:41:52.627Z,100436.28
2022-12-31T11:44:12.385Z,100440.88
2022-12-31T11:46:24.287Z,100427.81
2022-12-31T11:48:35.274Z,100445.34
2022-12-31T11:51:04.628Z,100417.59
2022-12-31T11:53:27.965Z,100451.00
2022-12-31T11:56:00.513Z,100423.94
2022-12-31T11:58:16.434Z,100408.25
2022-12-31T12:00:22.356Z,100430.91
2022-12-31T12:02:43.349Z,100424.16
2022-12-31T12:04:48.500Z,100392.97
2022-12-31T12:06:51.158Z,100440.56
2022-12-31T12:08:55.927Z,100413.91
2022-12-31T12:11:06.688Z,100419.06
2022-12-31T12:13:28.011Z,100428.38
2022-12-31T12:15:34.512Z,100423.47
2022-12-31T12:17:36.850Z,100435.28
2022-12-31T12:19:44.311Z,100411.28
2022-12-31T12:21:50.463Z,100406.56
2022-12-31T12:24:20.823Z,100411.28
2022-12-31T12:26:34.932Z,100398.94
2022-12-31T12:28:44.746Z,100421.44
2022-12-31T12:31:02.835Z,100382.41
2022-12-31T12:33:04.563Z,100386.06
2022-12-31T12:35:19.176Z,100412.31
2022-12-31T12:37:33.218Z,100419.47
2022-12-31T12:39:35.187Z,100409.81
2022-12-31T12:41:36.873Z,100413.97
2022-12-31T12:43:39.787Z,100404.50
2022-12-31T12:45:51.683Z,100436.09
2022-12-31T12:47:57.556Z,100373.88
2022-12-31T12:50:00.069Z,100400.50
2022-12-31T12:52:07.686Z,100401.69
2022-12-31T12:54:25.669Z,100400.69
2022-12-31T12:57:10.376Z,100394.50
2022-12-31T12:59:53.933Z,100409.16
2022-12-31T13:02:17.162Z,100393.53
2022-12-31T13:04:35.172Z,100384.88
2022-12-31T13:06:52.221Z,100374.56
2022-12-31T13:09:28.375Z,100389.38
2022-12-31T13:11:45.129Z,100401.69
2022-12-31T13:14:04.942Z,100401.38
2022-12-31T13:16:09.539Z,100396.53
2022-12-31T13:18:56.295Z,100401.19
2022-12-31T13:21:21.148Z,100392.41
2022-12-31T13:23:42.107Z,100398.72
2022-12-31T13:26:04.040Z,100376.44
2022-12-31T13:28:11.957Z,100416.34
2022-12-31T13:30:36.745Z,100419.47
2022-12-31T13:32:43.497Z,100393.03
2022-12-31T13:34:48.253Z,100396.22
2022-12-31T13:36:52.991Z,100340.66
2022-12-31T13:39:02.379Z,100393.69
2022-12-31T13:41:28.354Z,100407.00
2022-12-31T13:43:50.682Z,100411.50
2022-12-31T13:46:16.017Z,100410.66
2022-12-31T13:48:24.564Z,100398.50
2022-12-31T13:50:36.506Z,100416.13
2022-12-31T13:52:51.667Z,100409.16
2022-12-31T13:55:01.636Z,100412.84
2022-12-31T13:57:29.239Z,100413.84
2022-12-31T13:59:39.643Z,100413.81
2022-12-31T14:02:05.732Z,100405.69
2022-12-31T14:04:12.818Z,100431.09
2022-12-31T14:06:51.587Z,100412.31
2022-12-31T14:08:53.907Z,100405.69
2022-12-31T14:11:10.775Z,100414.31
2022-12-31T14:13:38.452Z,100403.88
2022-12-31T14:15:57.537Z,100427.94
2022-12-31T14:17:59.300Z,100443.38
2022-12-31T14:20:14.495Z,100434.94
2022-12-31T14:22:37.544Z,100437.38
2022-12-31T14:24:46.340Z,100434.41
2022-12-31T14:26:52.866Z,100397.03
2022-12-31T14:29:12.637Z,100434.75
2022-12-31T14:31:44.967Z,100436.38
2022-12-31T14:34:03.361Z,100442.09
2022-12-31T14:36:32.979Z,100442.72
2022-12-31T14:38:49.593Z,100446.72
2022-12-31T14:41:31.853Z,100446.72
2022-12-31T14:44:29.351Z,100420.81
2022-12-31T14:46:53.190Z,100441.91
2022-12-31T14:49:01.398Z,100435.06
2022-12-31T14:51:04.846Z,100442.69
2022-12-31T14:53:17.750Z,100439.22
2022-12-31T14:55:31.704Z,100430.06
2022-12-31T14:58:01.624Z,100442.03
2022-12-31T15:00:24.532Z,100453.69
2022-12-31T15:04:46.676Z,100452.66
2022-12-31T15:07:02.488Z,100443.69
2022-12-31T15:09:44.483Z,100443.84
2022-12-31T15:12:22.043Z,100451.13
2022-12-31T15:14:37.836Z,100449.50
2022-12-31T15:16:52.017Z,100452.50
2022-12-31T15:19:08.966Z,100450.66
2022-12-31T15:21:32.654Z,100446.38
2022-12-31T15:23:39.476Z,100452.03
2022-12-31T15:25:47.785Z,100452.88
2022-12-31T15:27:50.011Z,100455.84
2022-12-31T15:29:51.803Z,100447.41
2022-12-31T15:31:55.392Z,100448.72
2022-12-31T15:34:01.207Z,100459.88
2022-12-31T15:36:21.900Z,100445.06
2022-12-31T15:38:32.077Z,100453.88
2022-12-31T15:40:47.380Z,100460.03
2022-12-31T15:42:55.178Z,100472.00
2022-12-31T15:45:02.623Z,100476.31
2022-12-31T15:47:43.005Z,100478.16
2022-12-31T15:49:46.696Z,100489.78
2022-12-31T15:51:52.844Z,100489.31
2022-12-31T15:53:57.074Z,100493.28
2022-12-31T15:56:00.722Z,100504.94
2022-12-31T15:58:06.348Z,100504.13
2022-12-31T16:00:17.290Z,100495.94
2022-12-31T16:02:25.800Z,100500.78
2022-12-31T16:04:30.183Z,100501.47
2022-12-31T16:06:36.894Z,100494.63
2022-12-31T16:08:40.596Z,100490.47
2022-12-31T16:10:43.995Z,100492.09
2022-12-31T16:12:45.841Z,100486.78
2022-12-31T16:14:52.744Z,100488.28
2022-12-31T16:16:57.115Z,100495.25
2022-12-31T16:19:00.117Z,100482.44
2022-12-31T16:21:01.821Z,100495.91
2022-12-31T16:23:25.342Z,100478.44
2022-12-31T16:25:31.596Z,100499.34
2022-12-31T16:27:35.679Z,100470.13
2022-12-31T16:29:41.657Z,100480.63
2022-12-31T16:31:45.473Z,100484.94
2022-12-31T16:33:47.669Z,100475.97
2022-12-31T16:35:56.391Z,100481.09
2022-12-31T16:38:32.008Z,100488.44
2022-12-31T16:40:34.020Z,100475.78
2022-12-31T16:42:44.144Z,100475.00
2022-12-31T16:44:48.002Z,100477.94
2022-12-31T16:47:01.648Z,100467.31
2022-12-31T16:49:15.871Z,100467.84
2022-12-31T16:51:21.234Z,100471.66
2022-12-31T16:53:26.923Z,100475.31
2022-12-31T16:55:30.385Z,100477.16
2022-12-31T16:57:32.139Z,100470.69
2022-12-31T16:59:44.366Z,100467.69
2022-12-31T17:01:46.810Z,100479.50
2022-12-31T17:03:53.730Z,100475.84
2022-12-31T17:06:07.722Z,100485.66
2022-12-31T17:08:22.286Z,100480.34
2022-12-31T17:10:35.824Z,100488.31
2022-12-31T17:13:26.860Z,100493.81
2022-12-31T17:15:21.821Z,100488.31
2022-12-31T17:17:29.570Z,100494.47
2022-12-31T17:19:47.416Z,100477.31
2022-12-31T17:21:49.401Z,100480.50
2022-12-31T17:23:55.501Z,100482.63
2022-12-31T17:25:59.270Z,100503.25
2022-12-31T17:28:02.484Z,100495.28
2022-12-31T17:30:35.870Z,100498.09
2022-12-31T17:32:37.653Z,100505.19
2022-12-31T17:34:49.425Z,100490.38
2022-12-31T17:36:53.878Z,100504.19
2022-12-31T17:38:55.641Z,100499.63
2022-12-31T17:41:14.050Z,100509.75
2022-12-31T17:43:17.705Z,100515.38
2022-12-31T17:45:20.654Z,100515.66
2022-12-31T17:47:23.022Z,100523.34
2022-12-31T17:49:30.118Z,100520.50
2022-12-31T17:51:31.908Z,100517.13
2022-12-31T17:53:33.705Z,100523.75
2022-12-31T17:55:35.527Z,100516.97
2022-12-31T17:57:48.814Z,100499.63
2022-12-31T17:59:50.658Z,100498.97
2022-12-31T18:01:52.592Z,100502.34
2022-12-31T18:03:54.399Z,100498.78
2022-12-31T18:05:56.297Z,100502.34
2022-12-31T18:07:58.252Z,100501.28
2022-12-31T18:10:00.129Z,100490.13
2022-12-31T18:12:04.057Z,100502.34
2022-12-31T18:14:05.800Z,100489.03
2022-12-31T18:16:09.757Z,100512.75
2022-12-31T18:18:24.367Z,100524.16
2022-12-31T18:20:27.475Z,100529.00
2022-12-31T18:22:29.337Z,100526.66
2022-12-31T18:24:31.152Z,100516.00
2022-12-31T18:26:33.010Z,100528.63
2022-12-31T18:28:35.033Z,100526.78
2022-12-31T18:30:36.795Z,100514.66
2022-12-31T18:32:39.917Z,100520.84
2022-12-31T18:34:41.675Z,100531.63
2022-12-31T18:36:43.552Z,100522.63
2022-12-31T18:38:45.771Z,100527.53
2022-12-31T18:40:59.789Z,100540.03
2022-12-31T18:43:05.080Z,100549.16
2022-12-31T18:45:18.804Z,100534.19
2022-12-31T18:47:21.292Z,100558.66
2022-12-31T18:49:23.043Z,100562.47
2022-12-31T18:51:31.429Z,100564.97
2022-12-31T18:53:33.944Z,100556.63
2022-12-31T18:55:40.720Z,100559.34
2022-12-31T18:57:42.467Z,100560.53
2022-12-31T18:59:44.149Z,100565.50
2022-12-31T19:01:45.996Z,100556.84
2022-12-31T19:03:47.774Z,100566.28
2022-12-31T19:05:51.433Z,100559.69
2022-12-31T19:07:53.128Z,100566.19
2022-12-31T19:09:58.538Z,100552.25
2022-12-31T19:12:00.883Z,100564.72
2022-12-31T19:14:03.169Z,100564.53
2022-12-31T19:16:05.184Z,100546.41
2022-12-31T19:18:07.079Z,100562.38
2022-12-31T19:20:09.032Z,100565.06
2022-12-31T19:22:15.778Z,100543.94
2022-12-31T19:24:23.633Z,100553.41
2022-12-31T19:26:25.434Z,100566.69
2022-12-31T19:28:27.935Z,100570.16
2022-12-31T19:30:32.428Z,100570.34
2022-12-31T19:32:34.207Z,100573.63
2022-12-31T19:34:35.955Z,100561.13
2022-12-31T19:36:43.747Z,100554.16
2022-12-31T19:38:46.261Z,100557.47
2022-12-31T19:40:48.784Z,100550.88
2022-12-31T19:42:51.714Z,100552.00
2022-12-31T19:44:53.538Z,100539.72
2022-12-31T19:46:55.279Z,100559.00
2022-12-31T19:48:56.990Z,100558.00
2022-12-31T19:50:58.854Z,100538.13
2022-12-31T19:53:00.601Z,100539.63
2022-12-31T19:55:02.761Z,100533.34
2022-12-31T19:57:04.676Z,100542.00
2022-12-31T19:59:08.594Z,100542.25
2022-12-31T20:01:20.240Z,100554.03
2022-12-31T20:03:22.276Z,100557.91
2022-12-31T20:05:31.585Z,100557.88
2022-12-31T20:07:34.010Z,100557.31
2022-12-31T20:09:35.709Z,100560.28
2022-12-31T20:11:37.407Z,100561.00
2022-12-31T20:13:40.238Z,100570.34
2022-12-31T20:15:41.999Z,100562.00
2022-12-31T20:17:43.830Z,100562.69
2022-12-31T20:19:45.562Z,100557.34
2022-12-31T20:21:47.368Z,100568.31
2022-12-31T20:23:50.913Z,100570.28
2022-12-31T20:25:59.829Z,100570.09
2022-12-31T20:28:01.665Z,100574.78
2022-12-31T20:30:03.953Z,100571.47
2022-12-31T20:32:05.993Z,100578.44
2022-12-31T20:34:07.746Z,100573.16
2022-12-31T20:36:12.824Z,100570.66
2022-12-31T20:38:14.695Z,100575.47
2022-12-31T20:40:16.635Z,100575.59
2022-12-31T20:42:18.379Z,100580.47
2022-12-31T20:44:20.096Z,100581.13
2022-12-31T20:46:25.208Z,100570.28
2022-12-31T20:48:27.079Z,100576.91
2022-12-31T20:50:28.779Z,100557.13
2022-12-31T20:52:30.684Z,100567.78
2022-12-31T20:54:32.647Z,100558.47
2022-12-31T20:56:38.066Z,100565.63
2022-12-31T20:58:39.886Z,100563.16
2022-12-31T21:00:41.644Z,100567.88
2022-12-31T21:02:46.621Z,100573.81
2022-12-31T21:04:51.423Z,100569.81
2022-12-31T21:06:53.219Z,100572.13
2022-12-31T21:08:56.588Z,100564.00
2022-12-31T21:10:58.373Z,100570.31
2022-12-31T21:13:00.098Z,100557.53
2022-12-31T21:15:02.042Z,100563.50
2022-12-31T21:17:03.751Z,100549.38
2022-12-31T21:19:05.545Z,100557.00
2022-12-31T21:21:07.406Z,100554.50
2022-12-31T21:23:09.149Z,100548.53
2022-12-31T21:25:11.008Z,100552.88
2022-12-31T21:27:12.739Z,100552.50
2022-12-31T21:29:14.618Z,100521.41
2022-12-31T21:31:16.398Z,100557.69
2022-12-31T21:33:18.168Z,100549.19
2022-12-31T21:37:59.067Z,100550.38
2022-12-31T21:40:02.632Z,100552.88
2022-12-31T21:42:04.496Z,100546.88
2022-12-31T21:44:06.194Z,100563.50
2022-12-31T21:46:07.967Z,100552.84
2022-12-31T21:48:14.881Z,100554.81
2022-12-31T21:50:16.693Z,100547.47
2022-12-31T21:52:18.411Z,100556.13
2022-12-31T21:54:20.338Z,100545.78
2022-12-31T21:56:22.144Z,100553.25
2022-12-31T21:58:27.055Z,100546.97
2022-12-31T22:00:44.575Z,100547.31
2022-12-31T22:02:59.852Z,100550.78
2022-12-31T22:05:03.040Z,100553.59
2022-12-31T22:07:05.979Z,100563.06
2022-12-31T22:09:07.668Z,100557.59
2022-12-31T22:11:11.091Z,100569.22
2022-12-31T22:13:13.909Z,100554.44
2022-12-31T22:15:16.445Z,100548.88
2022-12-31T22:17:18.233Z,100538.19
2022-12-31T22:19:20.109Z,100549.97
2022-12-31T22:21:24.004Z,100551.41
2022-12-31T22:23:25.730Z,100559.88
2022-12-31T22:25:27.665Z,100547.56
2022-12-31T22:27:30.106Z,100508.94
2022-12-31T22:29:31.985Z,100560.16
2022-12-31T22:31:33.870Z,100546.00
2022-12-31T22:33:35.631Z,100558.84
2022-12-31T22:35:37.348Z,100562.34
2022-12-31T22:37:56.755Z,100556.47
2022-12-31T22:39:59.739Z,100562.59
2022-12-31T22:42:02.713Z,100562.59
2022-12-31T22:44:05.042Z,100563.44
2022-12-31T22:46:28.381Z,100563.09
2022-12-31T22:48:30.482Z,100562.47
2022-12-31T22:50:32.472Z,100558.94
2022-12-31T22:52:34.154Z,100553.59
2022-12-31T22:54:35.855Z,100561.06
2022-12-31T22:56:37.789Z,100568.22
2022-12-31T22:58:39.889Z,100557.44
2022-12-31T23:00:42.941Z,100573.88
2022-12-31T23:02:44.845Z,100582.19
2022-12-31T23:04:46.593Z,100566.50
2022-12-31T23:06:48.501Z,100565.84
2022-12-31T23:08:51.618Z,100576.72
2022-12-31T23:10:54.000Z,100574.59
2022-12-31T23:12:55.727Z,100573.06
2022-12-31T23:14:57.560Z,100572.22
2022-12-31T23:16:59.451Z,100567.06
2022-12-31T23:19:21.138Z,100574.19
2022-12-31T23:21:23.062Z,100570.72
2022-12-31T23:23:24.793Z,100578.47
2022-12-31T23:25:26.521Z,100574.88
2022-12-31T23:27:28.471Z,100571.38
2022-12-31T23:29:30.225Z,100566.06
2022-12-31T23:31:32.055Z,100562.72
2022-12-31T23:33:34.083Z,100563.75
2022-12-31T23:35:35.773Z,100567.44
2022-12-31T23:37:37.548Z,100574.94
2022-12-31T23:39:39.811Z,100576.59
2022-12-31T23:41:41.654Z,100584.94
2022-12-31T23:43:43.993Z,100589.63
2022-12-31T23:45:45.883Z,100584.94
2022-12-31T23:47:47.612Z,100590.09
2022-12-31T23:49:49.347Z,100588.97
2022-12-31T23:51:51.120Z,100580.16
2022-12-31T23:53:52.805Z,100593.00
2022-12-31T23:55:54.589Z,100582.66
2022-12-31T23:57:56.357Z,100579.66
2022-12-31T23:59:58.067Z,100581.84
